Guadalupe Pass, TX

3:35 AM MDT on May 28, 2017 (GMT -0600)
Guadalupe Pass | | Change Station
Active Advisory: High Wind Warning

Elev 5453 ft 31.83 °N, 104.80 °W | Updated 44 minutes ago

Mostly Cloudy
Mostly Cloudy
75 °F
Feels Like 75 °F
N
5
Wind Variable Wind from WNW

Today
High -- | Low -- °F
--% Chance of Precip.
Yesterday
High -- | Low -- °F
Precip. -- in
Pressure 29.84 in
Visibility 10.0 miles
Clouds Mostly Cloudy 12000 ft
Dew Point 10 °F
Humidity 8%
Rainfall 0.00 in
Snow Depth Not available.
5:55 AM 7:57 PM
Waxing Crescent, 10% visible
METAR KGDP 280851Z AUTO 30004KT 10SM BKN120 24/M12 A3013 RMK AO2 SLP103 T02391122 53002
Pressure 29.84 in
Visibility 10.0 miles
Clouds Mostly Cloudy 12000 ft
Dew Point 10 °F
Humidity 8%
Rainfall 0.00 in
Snow Depth Not available.
5:55 AM 7:57 PM
Waxing Crescent, 10% visible
METAR KGDP 280851Z AUTO 30004KT 10SM BKN120 24/M12 A3013 RMK AO2 SLP103 T02391122 53002

Get Your Daily Forecast Email!

Thanks for signing up!

Be on the lookout for a verification email in your inbox.

You'll start receiving severe weather alerts in your inbox..

×

10-Day Weather Forecast

Almanac

Astronomy

May. 28, 2017 Rise Set
Actual Time
Civil Twilight
Nautical Twilight
Astronomical Twilight
Moon
Length of Visible Light
Length of Day
Tomorrow will be .
, % of the Moon is Illuminated

Today's Extremes

State Highs State Lows

Community

WunderPhotos

Category 6

Welcome to Category 6. This is the collective home for Weather Underground's featured writeups by Dr. Jeff Masters (right), Bob Henson (left), Chris Burt, and other regular contributors.

Nearby

Air Quality

  Air Quality AQ Index Pollutant
Not available.

Snow Depth

Station Depth Elevation

Earthquake Activity

City Distance Mag. Time & Date
Minimum magnitude displayed is 2.5.

Coastal Water Temperatures

Place Temperature

Stations

Nearby Weather Stations

Station Location Temp. Windchill Dew Point Humidity Wind Precip. Elev Updated Type
                   

Watches & Warnings

High Wind Warning
Issued: 2:16 AM MDT May. 28, 2017 – National Weather Service

... High Wind Warning in effect until noon MDT today...

* timing... through Sunday morning.

* Winds... northeast 40 to 45 mph with a few gusts to 60 mph.

* Impacts... motorists should exercise caution while driving and
be alert to sudden gusts of wind which may cause you to lose
control of your vehicle.

Precautionary/preparedness actions...

A High Wind Warning means a hazardous high wind event is expected
or occurring.




216 am MDT sun may 28 2017

... High Wind Warning in effect until noon MDT today...

* timing... through Sunday morning.

* Winds... northeast 40 to 45 mph with a few gusts to 60 mph.

* Impacts... motorists should exercise caution while driving and
be alert to sudden gusts of wind which may cause you to lose
control of your vehicle.

Precautionary/preparedness actions...

A High Wind Warning means a hazardous high wind event is expected
or occurring.